sensor_id;sensor_type;location;lat;lon;timestamp;P1;durP1;ratioP1;P2;durP2;ratioP2
65275;SDS011;51875;49.994;14.052;2022-12-18T00:00:52;33.30;;;11.63;;
65275;SDS011;51875;49.994;14.052;2022-12-18T00:02:28;35.05;;;11.02;;
65275;SDS011;51875;49.994;14.052;2022-12-18T00:03:44;33.13;;;11.50;;
65275;SDS011;51875;49.994;14.052;2022-12-18T00:05:00;37.92;;;12.35;;
65275;SDS011;51875;49.994;14.052;2022-12-18T00:06:18;41.47;;;13.82;;
65275;SDS011;51875;49.994;14.052;2022-12-18T00:07:35;36.22;;;12.20;;
65275;SDS011;51875;49.994;14.052;2022-12-18T00:08:51;34.58;;;11.63;;
65275;SDS011;51875;49.994;14.052;2022-12-18T00:10:07;39.42;;;11.82;;
65275;SDS011;51875;49.994;14.052;2022-12-18T00:11:24;35.90;;;12.07;;
65275;SDS011;51875;49.994;14.052;2022-12-18T00:12:41;37.38;;;11.88;;
65275;SDS011;51875;49.994;14.052;2022-12-18T00:13:57;37.45;;;11.23;;
65275;SDS011;51875;49.994;14.052;2022-12-18T00:15:14;39.53;;;11.52;;
65275;SDS011;51875;49.994;14.052;2022-12-18T00:16:29;42.53;;;13.18;;
65275;SDS011;51875;49.994;14.052;2022-12-18T00:17:48;39.00;;;11.98;;
65275;SDS011;51875;49.994;14.052;2022-12-18T00:19:04;44.75;;;12.55;;
65275;SDS011;51875;49.994;14.052;2022-12-18T00:20:20;44.97;;;13.45;;
65275;SDS011;51875;49.994;14.052;2022-12-18T00:21:41;35.00;;;11.98;;
65275;SDS011;51875;49.994;14.052;2022-12-18T00:22:58;36.83;;;12.85;;
65275;SDS011;51875;49.994;14.052;2022-12-18T00:24:13;45.80;;;13.90;;
65275;SDS011;51875;49.994;14.052;2022-12-18T00:25:29;50.50;;;14.43;;
65275;SDS011;51875;49.994;14.052;2022-12-18T00:26:44;44.40;;;13.90;;
65275;SDS011;51875;49.994;14.052;2022-12-18T00:28:00;45.08;;;12.88;;
65275;SDS011;51875;49.994;14.052;2022-12-18T00:29:16;40.30;;;13.50;;
65275;SDS011;51875;49.994;14.052;2022-12-18T00:30:33;44.15;;;13.82;;
65275;SDS011;51875;49.994;14.052;2022-12-18T00:31:48;45.00;;;14.93;;
65275;SDS011;51875;49.994;14.052;2022-12-18T00:33:04;47.67;;;14.60;;
65275;SDS011;51875;49.994;14.052;2022-12-18T00:34:19;48.08;;;14.63;;
65275;SDS011;51875;49.994;14.052;2022-12-18T00:35:35;41.25;;;13.85;;
65275;SDS011;51875;49.994;14.052;2022-12-18T00:36:50;29.83;;;11.52;;
65275;SDS011;51875;49.994;14.052;2022-12-18T00:38:06;45.63;;;12.25;;
65275;SDS011;51875;49.994;14.052;2022-12-18T00:39:22;45.17;;;14.50;;
65275;SDS011;51875;49.994;14.052;2022-12-18T00:40:37;42.92;;;13.27;;
65275;SDS011;51875;49.994;14.052;2022-12-18T00:41:53;43.67;;;13.23;;
65275;SDS011;51875;49.994;14.052;2022-12-18T00:43:27;35.47;;;11.13;;
65275;SDS011;51875;49.994;14.052;2022-12-18T00:44:43;36.20;;;11.57;;
65275;SDS011;51875;49.994;14.052;2022-12-18T00:45:58;41.53;;;12.90;;
65275;SDS011;51875;49.994;14.052;2022-12-18T00:47:14;39.50;;;12.65;;
65275;SDS011;51875;49.994;14.052;2022-12-18T00:48:29;41.38;;;13.18;;
65275;SDS011;51875;49.994;14.052;2022-12-18T00:49:45;39.97;;;12.60;;
65275;SDS011;51875;49.994;14.052;2022-12-18T00:51:00;37.22;;;13.05;;
65275;SDS011;51875;49.994;14.052;2022-12-18T00:52:16;42.80;;;11.77;;
65275;SDS011;51875;49.994;14.052;2022-12-18T00:53:32;36.17;;;13.10;;
65275;SDS011;51875;49.994;14.052;2022-12-18T00:54:47;44.70;;;14.05;;
65275;SDS011;51875;49.994;14.052;2022-12-18T00:56:03;47.47;;;16.20;;
65275;SDS011;51875;49.994;14.052;2022-12-18T00:57:18;50.75;;;15.15;;
65275;SDS011;51875;49.994;14.052;2022-12-18T00:58:34;39.53;;;13.57;;
65275;SDS011;51875;49.994;14.052;2022-12-18T00:59:50;39.03;;;13.35;;
65275;SDS011;51875;49.994;14.052;2022-12-18T01:01:05;50.08;;;14.30;;
65275;SDS011;51875;49.994;14.052;2022-12-18T01:02:21;48.85;;;16.90;;
65275;SDS011;51875;49.994;14.052;2022-12-18T01:03:37;48.45;;;16.13;;
65275;SDS011;51875;49.994;14.052;2022-12-18T01:04:53;51.15;;;17.38;;
65275;SDS011;51875;49.994;14.052;2022-12-18T01:06:09;50.00;;;16.27;;
65275;SDS011;51875;49.994;14.052;2022-12-18T01:07:26;44.72;;;15.10;;
65275;SDS011;51875;49.994;14.052;2022-12-18T01:08:42;47.55;;;15.23;;
65275;SDS011;51875;49.994;14.052;2022-12-18T01:09:58;42.58;;;14.45;;
65275;SDS011;51875;49.994;14.052;2022-12-18T01:11:15;50.95;;;16.40;;
65275;SDS011;51875;49.994;14.052;2022-12-18T01:12:33;46.58;;;15.82;;
65275;SDS011;51875;49.994;14.052;2022-12-18T01:13:49;42.13;;;14.85;;
65275;SDS011;51875;49.994;14.052;2022-12-18T01:15:05;53.45;;;16.13;;
65275;SDS011;51875;49.994;14.052;2022-12-18T01:16:29;45.08;;;14.98;;
65275;SDS011;51875;49.994;14.052;2022-12-18T01:17:44;41.65;;;14.50;;
65275;SDS011;51875;49.994;14.052;2022-12-18T01:19:00;42.58;;;13.88;;
65275;SDS011;51875;49.994;14.052;2022-12-18T01:20:15;41.22;;;12.63;;
65275;SDS011;51875;49.994;14.052;2022-12-18T01:21:31;41.28;;;13.05;;
65275;SDS011;51875;49.994;14.052;2022-12-18T01:22:46;40.80;;;14.30;;
65275;SDS011;51875;49.994;14.052;2022-12-18T01:24:02;37.80;;;12.85;;
65275;SDS011;51875;49.994;14.052;2022-12-18T01:25:18;36.67;;;12.52;;
65275;SDS011;51875;49.994;14.052;2022-12-18T01:26:33;35.70;;;11.85;;
65275;SDS011;51875;49.994;14.052;2022-12-18T01:27:49;40.00;;;13.30;;
65275;SDS011;51875;49.994;14.052;2022-12-18T01:29:04;38.72;;;12.05;;
65275;SDS011;51875;49.994;14.052;2022-12-18T01:30:20;39.08;;;13.95;;
65275;SDS011;51875;49.994;14.052;2022-12-18T01:31:36;38.75;;;12.75;;
65275;SDS011;51875;49.994;14.052;2022-12-18T01:32:51;38.38;;;11.80;;
65275;SDS011;51875;49.994;14.052;2022-12-18T01:34:07;35.58;;;12.48;;
65275;SDS011;51875;49.994;14.052;2022-12-18T01:35:24;37.22;;;12.95;;
65275;SDS011;51875;49.994;14.052;2022-12-18T01:36:39;38.50;;;13.63;;
65275;SDS011;51875;49.994;14.052;2022-12-18T01:37:55;35.95;;;12.80;;
65275;SDS011;51875;49.994;14.052;2022-12-18T01:39:12;37.13;;;13.27;;
65275;SDS011;51875;49.994;14.052;2022-12-18T01:40:28;39.47;;;13.93;;
65275;SDS011;51875;49.994;14.052;2022-12-18T01:41:44;42.47;;;13.38;;
65275;SDS011;51875;49.994;14.052;2022-12-18T01:43:18;37.95;;;12.60;;
65275;SDS011;51875;49.994;14.052;2022-12-18T01:46:09;37.22;;;12.90;;
65275;SDS011;51875;49.994;14.052;2022-12-18T01:47:33;42.80;;;13.30;;
65275;SDS011;51875;49.994;14.052;2022-12-18T01:49:00;38.50;;;12.20;;
65275;SDS011;51875;49.994;14.052;2022-12-18T01:50:18;40.95;;;14.07;;
65275;SDS011;51875;49.994;14.052;2022-12-18T01:51:36;42.42;;;15.68;;
65275;SDS011;51875;49.994;14.052;2022-12-18T01:52:56;41.78;;;17.23;;
65275;SDS011;51875;49.994;14.052;2022-12-18T01:54:17;48.47;;;17.85;;
65275;SDS011;51875;49.994;14.052;2022-12-18T01:55:38;48.50;;;19.08;;
65275;SDS011;51875;49.994;14.052;2022-12-18T01:57:02;55.83;;;17.42;;
65275;SDS011;51875;49.994;14.052;2022-12-18T01:58:18;51.10;;;16.67;;
65275;SDS011;51875;49.994;14.052;2022-12-18T01:59:38;45.08;;;14.27;;
65275;SDS011;51875;49.994;14.052;2022-12-18T02:00:57;37.28;;;13.77;;
65275;SDS011;51875;49.994;14.052;2022-12-18T02:02:12;48.10;;;15.65;;
65275;SDS011;51875;49.994;14.052;2022-12-18T02:03:29;43.10;;;13.98;;
65275;SDS011;51875;49.994;14.052;2022-12-18T02:04:45;42.00;;;14.07;;
65275;SDS011;51875;49.994;14.052;2022-12-18T02:11:44;40.45;;;13.30;;
65275;SDS011;51875;49.994;14.052;2022-12-18T02:13:15;33.58;;;10.63;;
65275;SDS011;51875;49.994;14.052;2022-12-18T02:14:44;37.25;;;11.90;;
65275;SDS011;51875;49.994;14.052;2022-12-18T02:16:16;41.97;;;14.40;;
65275;SDS011;51875;49.994;14.052;2022-12-18T02:20:59;36.05;;;13.27;;
65275;SDS011;51875;49.994;14.052;2022-12-18T02:22:40;40.15;;;11.77;;
65275;SDS011;51875;49.994;14.052;2022-12-18T02:27:29;31.10;;;10.30;;
65275;SDS011;51875;49.994;14.052;2022-12-18T02:28:49;30.35;;;10.93;;
65275;SDS011;51875;49.994;14.052;2022-12-18T02:30:09;49.50;;;13.73;;
65275;SDS011;51875;49.994;14.052;2022-12-18T02:31:27;41.83;;;14.20;;
65275;SDS011;51875;49.994;14.052;2022-12-18T02:32:50;36.28;;;12.73;;
65275;SDS011;51875;49.994;14.052;2022-12-18T02:34:07;29.60;;;11.02;;
65275;SDS011;51875;49.994;14.052;2022-12-18T02:35:24;44.83;;;13.65;;
65275;SDS011;51875;49.994;14.052;2022-12-18T02:36:43;44.53;;;14.02;;
65275;SDS011;51875;49.994;14.052;2022-12-18T02:38:01;40.60;;;13.48;;
65275;SDS011;51875;49.994;14.052;2022-12-18T02:39:18;36.70;;;14.60;;
65275;SDS011;51875;49.994;14.052;2022-12-18T02:40:37;48.00;;;14.63;;
65275;SDS011;51875;49.994;14.052;2022-12-18T02:41:54;35.67;;;12.75;;
65275;SDS011;51875;49.994;14.052;2022-12-18T02:43:11;41.40;;;14.18;;
65275;SDS011;51875;49.994;14.052;2022-12-18T02:44:29;43.17;;;14.13;;
65275;SDS011;51875;49.994;14.052;2022-12-18T02:45:48;51.38;;;15.80;;
65275;SDS011;51875;49.994;14.052;2022-12-18T02:47:08;49.53;;;15.65;;
65275;SDS011;51875;49.994;14.052;2022-12-18T02:48:33;45.70;;;15.68;;
65275;SDS011;51875;49.994;14.052;2022-12-18T02:49:55;48.72;;;15.18;;
65275;SDS011;51875;49.994;14.052;2022-12-18T02:51:18;45.10;;;13.18;;
65275;SDS011;51875;49.994;14.052;2022-12-18T02:54:36;42.88;;;16.23;;
65275;SDS011;51875;49.994;14.052;2022-12-18T02:56:06;44.60;;;14.93;;
65275;SDS011;51875;49.994;14.052;2022-12-18T02:57:34;48.28;;;14.70;;
65275;SDS011;51875;49.994;14.052;2022-12-18T02:58:57;55.47;;;17.95;;
65275;SDS011;51875;49.994;14.052;2022-12-18T03:00:17;56.65;;;17.38;;
65275;SDS011;51875;49.994;14.052;2022-12-18T03:01:38;53.00;;;18.17;;
65275;SDS011;51875;49.994;14.052;2022-12-18T03:04:30;55.42;;;16.83;;
65275;SDS011;51875;49.994;14.052;2022-12-18T03:05:53;49.38;;;15.38;;
65275;SDS011;51875;49.994;14.052;2022-12-18T03:07:18;54.60;;;16.17;;
65275;SDS011;51875;49.994;14.052;2022-12-18T03:08:40;53.58;;;17.52;;
65275;SDS011;51875;49.994;14.052;2022-12-18T03:09:58;56.65;;;17.77;;
65275;SDS011;51875;49.994;14.052;2022-12-18T03:11:16;52.67;;;17.35;;
65275;SDS011;51875;49.994;14.052;2022-12-18T03:12:52;50.10;;;16.25;;
65275;SDS011;51875;49.994;14.052;2022-12-18T03:14:14;49.03;;;15.40;;
65275;SDS011;51875;49.994;14.052;2022-12-18T03:15:33;47.63;;;15.57;;
65275;SDS011;51875;49.994;14.052;2022-12-18T03:16:53;61.83;;;17.52;;
65275;SDS011;51875;49.994;14.052;2022-12-18T03:18:14;57.40;;;17.02;;
65275;SDS011;51875;49.994;14.052;2022-12-18T03:19:35;53.85;;;17.17;;
65275;SDS011;51875;49.994;14.052;2022-12-18T03:20:52;52.22;;;17.10;;
65275;SDS011;51875;49.994;14.052;2022-12-18T03:22:11;58.33;;;18.80;;
65275;SDS011;51875;49.994;14.052;2022-12-18T03:23:29;62.80;;;19.10;;
65275;SDS011;51875;49.994;14.052;2022-12-18T03:26:07;59.25;;;16.88;;
65275;SDS011;51875;49.994;14.052;2022-12-18T03:27:26;56.28;;;16.88;;
65275;SDS011;51875;49.994;14.052;2022-12-18T03:28:46;56.53;;;18.70;;
65275;SDS011;51875;49.994;14.052;2022-12-18T03:30:08;61.08;;;19.25;;
65275;SDS011;51875;49.994;14.052;2022-12-18T03:31:27;68.65;;;21.20;;
65275;SDS011;51875;49.994;14.052;2022-12-18T03:32:47;63.15;;;20.13;;
65275;SDS011;51875;49.994;14.052;2022-12-18T03:34:15;57.58;;;19.77;;
65275;SDS011;51875;49.994;14.052;2022-12-18T03:35:38;63.22;;;21.63;;
65275;SDS011;51875;49.994;14.052;2022-12-18T03:36:56;65.13;;;21.80;;
65275;SDS011;51875;49.994;14.052;2022-12-18T03:38:12;59.38;;;19.80;;
65275;SDS011;51875;49.994;14.052;2022-12-18T03:39:28;71.05;;;24.05;;
65275;SDS011;51875;49.994;14.052;2022-12-18T03:41:02;62.20;;;22.25;;
65275;SDS011;51875;49.994;14.052;2022-12-18T03:45:33;62.30;;;22.10;;
65275;SDS011;51875;49.994;14.052;2022-12-18T03:48:26;55.53;;;20.75;;
65275;SDS011;51875;49.994;14.052;2022-12-18T03:50:03;58.25;;;19.00;;
65275;SDS011;51875;49.994;14.052;2022-12-18T03:51:33;51.83;;;18.23;;
65275;SDS011;51875;49.994;14.052;2022-12-18T03:53:39;67.13;;;18.35;;
65275;SDS011;51875;49.994;14.052;2022-12-18T03:54:48;62.60;;;19.20;;
65275;SDS011;51875;49.994;14.052;2022-12-18T03:56:05;58.22;;;20.15;;
65275;SDS011;51875;49.994;14.052;2022-12-18T03:57:25;59.58;;;19.67;;
65275;SDS011;51875;49.994;14.052;2022-12-18T03:58:43;66.78;;;21.77;;
65275;SDS011;51875;49.994;14.052;2022-12-18T04:00:09;62.78;;;22.38;;
65275;SDS011;51875;49.994;14.052;2022-12-18T04:01:38;62.67;;;20.73;;
65275;SDS011;51875;49.994;14.052;2022-12-18T04:02:59;60.92;;;19.90;;
65275;SDS011;51875;49.994;14.052;2022-12-18T04:04:17;63.95;;;21.50;;
65275;SDS011;51875;49.994;14.052;2022-12-18T04:05:34;53.08;;;20.60;;
65275;SDS011;51875;49.994;14.052;2022-12-18T04:06:52;63.25;;;21.67;;
65275;SDS011;51875;49.994;14.052;2022-12-18T04:08:08;62.45;;;23.10;;
65275;SDS011;51875;49.994;14.052;2022-12-18T04:09:24;55.92;;;21.98;;
65275;SDS011;51875;49.994;14.052;2022-12-18T04:10:41;79.40;;;24.60;;
65275;SDS011;51875;49.994;14.052;2022-12-18T04:11:56;67.18;;;23.20;;
65275;SDS011;51875;49.994;14.052;2022-12-18T04:13:12;61.72;;;23.30;;
65275;SDS011;51875;49.994;14.052;2022-12-18T04:14:28;63.60;;;23.00;;
65275;SDS011;51875;49.994;14.052;2022-12-18T04:15:43;69.75;;;23.80;;
65275;SDS011;51875;49.994;14.052;2022-12-18T04:16:59;60.58;;;22.48;;
65275;SDS011;51875;49.994;14.052;2022-12-18T04:18:14;64.13;;;22.23;;
65275;SDS011;51875;49.994;14.052;2022-12-18T04:19:30;65.25;;;22.38;;
65275;SDS011;51875;49.994;14.052;2022-12-18T04:20:46;63.15;;;21.63;;
65275;SDS011;51875;49.994;14.052;2022-12-18T04:22:01;58.25;;;21.13;;
65275;SDS011;51875;49.994;14.052;2022-12-18T04:23:17;57.53;;;20.67;;
65275;SDS011;51875;49.994;14.052;2022-12-18T04:24:33;65.13;;;21.80;;
65275;SDS011;51875;49.994;14.052;2022-12-18T04:25:48;57.95;;;20.38;;
65275;SDS011;51875;49.994;14.052;2022-12-18T04:27:04;56.85;;;20.75;;
65275;SDS011;51875;49.994;14.052;2022-12-18T04:28:20;64.15;;;22.20;;
65275;SDS011;51875;49.994;14.052;2022-12-18T04:29:36;56.38;;;21.30;;
65275;SDS011;51875;49.994;14.052;2022-12-18T04:30:51;59.78;;;21.42;;
65275;SDS011;51875;49.994;14.052;2022-12-18T04:32:07;59.70;;;21.17;;
65275;SDS011;51875;49.994;14.052;2022-12-18T04:33:23;53.78;;;20.55;;
65275;SDS011;51875;49.994;14.052;2022-12-18T04:34:39;58.17;;;20.75;;
65275;SDS011;51875;49.994;14.052;2022-12-18T04:35:55;64.70;;;21.60;;
65275;SDS011;51875;49.994;14.052;2022-12-18T04:37:10;56.78;;;19.35;;
65275;SDS011;51875;49.994;14.052;2022-12-18T04:38:26;59.60;;;21.00;;
65275;SDS011;51875;49.994;14.052;2022-12-18T04:39:42;59.05;;;20.02;;
65275;SDS011;51875;49.994;14.052;2022-12-18T04:40:57;58.85;;;21.38;;
65275;SDS011;51875;49.994;14.052;2022-12-18T04:42:12;61.92;;;20.98;;
65275;SDS011;51875;49.994;14.052;2022-12-18T04:43:28;58.17;;;20.05;;
65275;SDS011;51875;49.994;14.052;2022-12-18T04:44:44;60.45;;;20.23;;
65275;SDS011;51875;49.994;14.052;2022-12-18T04:46:03;60.95;;;19.88;;
65275;SDS011;51875;49.994;14.052;2022-12-18T04:47:20;58.00;;;20.52;;
65275;SDS011;51875;49.994;14.052;2022-12-18T04:48:35;72.88;;;23.30;;
65275;SDS011;51875;49.994;14.052;2022-12-18T04:49:52;55.03;;;19.50;;
65275;SDS011;51875;49.994;14.052;2022-12-18T04:51:07;60.60;;;19.33;;
65275;SDS011;51875;49.994;14.052;2022-12-18T04:52:23;54.67;;;18.60;;
65275;SDS011;51875;49.994;14.052;2022-12-18T04:53:38;67.55;;;21.23;;
65275;SDS011;51875;49.994;14.052;2022-12-18T04:54:54;66.28;;;21.55;;
65275;SDS011;51875;49.994;14.052;2022-12-18T04:56:10;66.88;;;22.38;;
65275;SDS011;51875;49.994;14.052;2022-12-18T04:57:28;64.00;;;20.98;;
65275;SDS011;51875;49.994;14.052;2022-12-18T04:58:44;68.82;;;21.88;;
65275;SDS011;51875;49.994;14.052;2022-12-18T05:00:00;65.00;;;22.02;;
65275;SDS011;51875;49.994;14.052;2022-12-18T05:01:16;67.30;;;20.98;;
65275;SDS011;51875;49.994;14.052;2022-12-18T05:02:32;62.58;;;21.95;;
65275;SDS011;51875;49.994;14.052;2022-12-18T05:03:48;70.78;;;23.58;;
65275;SDS011;51875;49.994;14.052;2022-12-18T05:05:04;68.93;;;23.10;;
65275;SDS011;51875;49.994;14.052;2022-12-18T05:06:20;69.28;;;21.55;;
65275;SDS011;51875;49.994;14.052;2022-12-18T05:07:35;66.57;;;21.45;;
65275;SDS011;51875;49.994;14.052;2022-12-18T05:08:51;76.07;;;25.08;;
65275;SDS011;51875;49.994;14.052;2022-12-18T05:10:07;69.90;;;21.77;;
65275;SDS011;51875;49.994;14.052;2022-12-18T05:11:22;66.90;;;23.27;;
65275;SDS011;51875;49.994;14.052;2022-12-18T05:12:38;69.15;;;22.83;;
65275;SDS011;51875;49.994;14.052;2022-12-18T05:14:13;60.05;;;21.23;;
65275;SDS011;51875;49.994;14.052;2022-12-18T05:15:29;78.22;;;22.45;;
65275;SDS011;51875;49.994;14.052;2022-12-18T05:16:46;71.80;;;21.92;;
65275;SDS011;51875;49.994;14.052;2022-12-18T05:18:03;66.35;;;20.63;;
65275;SDS011;51875;49.994;14.052;2022-12-18T05:19:19;71.82;;;21.65;;
65275;SDS011;51875;49.994;14.052;2022-12-18T05:20:35;76.18;;;24.58;;
65275;SDS011;51875;49.994;14.052;2022-12-18T05:21:50;67.90;;;23.13;;
65275;SDS011;51875;49.994;14.052;2022-12-18T05:23:06;78.65;;;26.60;;
65275;SDS011;51875;49.994;14.052;2022-12-18T05:24:21;95.25;;;35.65;;
65275;SDS011;51875;49.994;14.052;2022-12-18T05:25:37;95.13;;;39.67;;
65275;SDS011;51875;49.994;14.052;2022-12-18T05:26:52;70.35;;;27.30;;
65275;SDS011;51875;49.994;14.052;2022-12-18T05:28:08;65.07;;;25.27;;
65275;SDS011;51875;49.994;14.052;2022-12-18T05:29:23;68.78;;;23.75;;
65275;SDS011;51875;49.994;14.052;2022-12-18T05:30:39;66.88;;;21.45;;
65275;SDS011;51875;49.994;14.052;2022-12-18T05:31:57;69.18;;;22.02;;
65275;SDS011;51875;49.994;14.052;2022-12-18T05:33:13;68.85;;;20.42;;
65275;SDS011;51875;49.994;14.052;2022-12-18T05:34:28;75.47;;;27.85;;
65275;SDS011;51875;49.994;14.052;2022-12-18T05:35:44;68.63;;;24.75;;
65275;SDS011;51875;49.994;14.052;2022-12-18T05:37:05;74.57;;;28.15;;
65275;SDS011;51875;49.994;14.052;2022-12-18T05:38:21;72.43;;;24.90;;
65275;SDS011;51875;49.994;14.052;2022-12-18T05:39:37;79.03;;;28.08;;
65275;SDS011;51875;49.994;14.052;2022-12-18T05:40:53;82.25;;;25.73;;
65275;SDS011;51875;49.994;14.052;2022-12-18T05:42:09;71.20;;;23.00;;
65275;SDS011;51875;49.994;14.052;2022-12-18T05:43:25;76.90;;;23.25;;
65275;SDS011;51875;49.994;14.052;2022-12-18T05:44:41;61.95;;;21.95;;
65275;SDS011;51875;49.994;14.052;2022-12-18T05:45:57;69.82;;;20.40;;
65275;SDS011;51875;49.994;14.052;2022-12-18T05:47:12;78.72;;;21.65;;
65275;SDS011;51875;49.994;14.052;2022-12-18T05:48:28;75.00;;;21.90;;
65275;SDS011;51875;49.994;14.052;2022-12-18T05:49:43;68.70;;;20.63;;
65275;SDS011;51875;49.994;14.052;2022-12-18T05:51:06;68.45;;;21.83;;
65275;SDS011;51875;49.994;14.052;2022-12-18T05:52:23;61.97;;;19.67;;
65275;SDS011;51875;49.994;14.052;2022-12-18T05:53:38;66.00;;;20.85;;
65275;SDS011;51875;49.994;14.052;2022-12-18T05:54:54;75.45;;;23.30;;
65275;SDS011;51875;49.994;14.052;2022-12-18T05:56:11;71.63;;;21.48;;
65275;SDS011;51875;49.994;14.052;2022-12-18T05:57:29;71.07;;;21.50;;
65275;SDS011;51875;49.994;14.052;2022-12-18T05:58:45;72.07;;;21.60;;
65275;SDS011;51875;49.994;14.052;2022-12-18T06:00:01;70.10;;;22.25;;
65275;SDS011;51875;49.994;14.052;2022-12-18T06:01:19;87.43;;;24.77;;
65275;SDS011;51875;49.994;14.052;2022-12-18T06:02:36;72.10;;;21.75;;
65275;SDS011;51875;49.994;14.052;2022-12-18T06:03:52;77.20;;;22.05;;
65275;SDS011;51875;49.994;14.052;2022-12-18T06:05:07;72.60;;;21.75;;
65275;SDS011;51875;49.994;14.052;2022-12-18T06:06:25;78.70;;;22.77;;
65275;SDS011;51875;49.994;14.052;2022-12-18T06:07:42;83.32;;;23.88;;
65275;SDS011;51875;49.994;14.052;2022-12-18T06:08:57;92.63;;;25.55;;
65275;SDS011;51875;49.994;14.052;2022-12-18T06:10:13;87.55;;;23.02;;
65275;SDS011;51875;49.994;14.052;2022-12-18T06:11:29;84.25;;;21.65;;
65275;SDS011;51875;49.994;14.052;2022-12-18T06:12:44;84.60;;;23.73;;
65275;SDS011;51875;49.994;14.052;2022-12-18T06:14:00;92.03;;;24.90;;
65275;SDS011;51875;49.994;14.052;2022-12-18T06:15:16;73.70;;;23.20;;
65275;SDS011;51875;49.994;14.052;2022-12-18T06:16:32;83.40;;;23.33;;
65275;SDS011;51875;49.994;14.052;2022-12-18T06:17:48;83.05;;;26.63;;
65275;SDS011;51875;49.994;14.052;2022-12-18T06:19:04;79.55;;;23.88;;
65275;SDS011;51875;49.994;14.052;2022-12-18T06:20:20;82.72;;;22.70;;
65275;SDS011;51875;49.994;14.052;2022-12-18T06:21:36;86.57;;;24.73;;
65275;SDS011;51875;49.994;14.052;2022-12-18T06:22:51;87.63;;;23.85;;
65275;SDS011;51875;49.994;14.052;2022-12-18T06:24:07;70.05;;;22.02;;
65275;SDS011;51875;49.994;14.052;2022-12-18T06:25:23;81.05;;;22.65;;
65275;SDS011;51875;49.994;14.052;2022-12-18T06:26:39;77.85;;;23.42;;
65275;SDS011;51875;49.994;14.052;2022-12-18T06:27:54;100.95;;;35.42;;
65275;SDS011;51875;49.994;14.052;2022-12-18T06:29:09;78.43;;;25.55;;
65275;SDS011;51875;49.994;14.052;2022-12-18T06:30:25;73.18;;;23.27;;
65275;SDS011;51875;49.994;14.052;2022-12-18T06:31:41;81.20;;;22.60;;
65275;SDS011;51875;49.994;14.052;2022-12-18T06:32:56;73.20;;;23.10;;
65275;SDS011;51875;49.994;14.052;2022-12-18T06:34:12;80.70;;;25.30;;
65275;SDS011;51875;49.994;14.052;2022-12-18T06:35:27;81.18;;;25.95;;
65275;SDS011;51875;49.994;14.052;2022-12-18T06:36:43;81.03;;;24.80;;
65275;SDS011;51875;49.994;14.052;2022-12-18T06:38:00;83.78;;;25.17;;
65275;SDS011;51875;49.994;14.052;2022-12-18T06:39:16;73.93;;;23.15;;
65275;SDS011;51875;49.994;14.052;2022-12-18T06:40:32;91.05;;;27.63;;
65275;SDS011;51875;49.994;14.052;2022-12-18T06:41:48;85.95;;;24.35;;
65275;SDS011;51875;49.994;14.052;2022-12-18T06:43:03;85.25;;;23.80;;
65275;SDS011;51875;49.994;14.052;2022-12-18T06:44:21;86.93;;;24.17;;
65275;SDS011;51875;49.994;14.052;2022-12-18T06:45:37;84.00;;;22.55;;
65275;SDS011;51875;49.994;14.052;2022-12-18T06:46:53;97.28;;;24.83;;
65275;SDS011;51875;49.994;14.052;2022-12-18T06:48:08;82.80;;;23.77;;
65275;SDS011;51875;49.994;14.052;2022-12-18T06:49:24;90.60;;;24.67;;
65275;SDS011;51875;49.994;14.052;2022-12-18T06:50:41;93.75;;;25.85;;
65275;SDS011;51875;49.994;14.052;2022-12-18T06:51:58;82.75;;;23.02;;
65275;SDS011;51875;49.994;14.052;2022-12-18T06:53:13;83.38;;;25.17;;
65275;SDS011;51875;49.994;14.052;2022-12-18T06:54:29;89.32;;;26.80;;
65275;SDS011;51875;49.994;14.052;2022-12-18T06:55:44;89.93;;;26.15;;
65275;SDS011;51875;49.994;14.052;2022-12-18T06:57:00;83.18;;;24.17;;
65275;SDS011;51875;49.994;14.052;2022-12-18T06:58:15;77.80;;;23.20;;
65275;SDS011;51875;49.994;14.052;2022-12-18T06:59:31;85.50;;;24.58;;
65275;SDS011;51875;49.994;14.052;2022-12-18T07:00:46;81.10;;;23.83;;
65275;SDS011;51875;49.994;14.052;2022-12-18T07:02:02;82.95;;;22.95;;
65275;SDS011;51875;49.994;14.052;2022-12-18T07:03:18;90.18;;;24.63;;
65275;SDS011;51875;49.994;14.052;2022-12-18T07:04:33;91.43;;;24.92;;
65275;SDS011;51875;49.994;14.052;2022-12-18T07:05:49;90.00;;;26.67;;
65275;SDS011;51875;49.994;14.052;2022-12-18T07:07:05;87.28;;;27.00;;
65275;SDS011;51875;49.994;14.052;2022-12-18T07:08:20;99.57;;;28.50;;
65275;SDS011;51875;49.994;14.052;2022-12-18T07:09:36;93.47;;;28.80;;
65275;SDS011;51875;49.994;14.052;2022-12-18T07:10:51;86.32;;;30.38;;
65275;SDS011;51875;49.994;14.052;2022-12-18T07:12:10;84.97;;;27.38;;
65275;SDS011;51875;49.994;14.052;2022-12-18T07:13:25;95.25;;;26.70;;
65275;SDS011;51875;49.994;14.052;2022-12-18T07:14:41;89.03;;;25.63;;
65275;SDS011;51875;49.994;14.052;2022-12-18T07:16:14;85.40;;;24.48;;
65275;SDS011;51875;49.994;14.052;2022-12-18T07:17:31;95.00;;;24.60;;
65275;SDS011;51875;49.994;14.052;2022-12-18T07:18:47;84.53;;;23.55;;
65275;SDS011;51875;49.994;14.052;2022-12-18T07:20:03;89.75;;;23.40;;
65275;SDS011;51875;49.994;14.052;2022-12-18T07:21:19;89.63;;;23.17;;
65275;SDS011;51875;49.994;14.052;2022-12-18T07:22:35;75.22;;;22.40;;
65275;SDS011;51875;49.994;14.052;2022-12-18T07:23:50;88.97;;;24.48;;
65275;SDS011;51875;49.994;14.052;2022-12-18T07:25:06;84.82;;;23.00;;
65275;SDS011;51875;49.994;14.052;2022-12-18T07:26:22;90.78;;;25.33;;
65275;SDS011;51875;49.994;14.052;2022-12-18T07:27:38;87.65;;;23.60;;
65275;SDS011;51875;49.994;14.052;2022-12-18T07:28:56;86.65;;;25.42;;
65275;SDS011;51875;49.994;14.052;2022-12-18T07:30:12;85.85;;;23.65;;
65275;SDS011;51875;49.994;14.052;2022-12-18T07:31:28;83.95;;;23.52;;
65275;SDS011;51875;49.994;14.052;2022-12-18T07:32:44;89.05;;;23.95;;
65275;SDS011;51875;49.994;14.052;2022-12-18T07:33:59;81.47;;;25.70;;
65275;SDS011;51875;49.994;14.052;2022-12-18T07:35:18;93.97;;;25.27;;
65275;SDS011;51875;49.994;14.052;2022-12-18T07:36:34;95.53;;;26.05;;
65275;SDS011;51875;49.994;14.052;2022-12-18T07:37:50;121.38;;;28.48;;
65275;SDS011;51875;49.994;14.052;2022-12-18T07:39:05;110.03;;;30.77;;
65275;SDS011;51875;49.994;14.052;2022-12-18T07:40:20;109.20;;;29.35;;
65275;SDS011;51875;49.994;14.052;2022-12-18T07:41:36;100.10;;;27.60;;
65275;SDS011;51875;49.994;14.052;2022-12-18T07:42:52;91.57;;;25.35;;
65275;SDS011;51875;49.994;14.052;2022-12-18T07:44:10;106.10;;;26.40;;
65275;SDS011;51875;49.994;14.052;2022-12-18T07:45:26;96.80;;;25.10;;
65275;SDS011;51875;49.994;14.052;2022-12-18T07:46:41;98.13;;;26.75;;
65275;SDS011;51875;49.994;14.052;2022-12-18T07:47:57;218.40;;;64.70;;
65275;SDS011;51875;49.994;14.052;2022-12-18T07:49:12;111.22;;;27.15;;
65275;SDS011;51875;49.994;14.052;2022-12-18T07:50:28;95.65;;;25.23;;
65275;SDS011;51875;49.994;14.052;2022-12-18T07:51:43;105.80;;;30.63;;